»·PEaware :: N285 KGEG-KPSC

N285 :: KGEG-KPSC

FLIGHT INFORMATION

Flight Status: Arrived
Operator: Privately registered:
United States
More flights under this callsign
Pilot: Leo F. (613)
Aircraft: BEECH AIRCRAFT SUPER KING AIR COMMUTER
(BE20)
More flights by this aircraft type
Origin: KGEG Spokane Intl
United States
Destination: KPSC Tri-Cities
United States
More flights between these airports :: More routes between these airports
Route: GEG3 GEG V204 PSC
File this flight plan on PilotEdge
Remarks:
Altitude:
(Current/Filed)
10,000ft
Speed:
(Current/Filed)
270kts
Departed: 01-Aug-18 09:24 AM
Arrived: 01-Aug-18 09:58 AM
Distance/Time
Traveled:
104nm/0:34
Distance/Time
To Go:
Arrived

Flight Plot

Page will automatically refresh every two minutes.

Flight plan parsing failed; only flown route is shown


Map Options




Map Legend


Flown Route
Filed Route
Departure Airport
Arrival Airport
Navaid (VOR, NDB)
Fix

Horizontal Profiles

Position Reports

Time Latitude Longitude Heading Altitude Ground
Speed
01-Aug-18 08:58 47.613907 -117.534929 24 2376ft 0kts
01-Aug-18 08:59 47.613909 -117.534927 24 2376ft 0kts
01-Aug-18 09:00 47.613912 -117.534925 24 2376ft 0kts
01-Aug-18 09:01 47.613914 -117.534924 24 2376ft 0kts
01-Aug-18 09:02 47.613917 -117.534922 24 2376ft 0kts
01-Aug-18 09:03 47.613919 -117.534920 24 2376ft 0kts
01-Aug-18 09:04 47.613922 -117.534919 24 2376ft 0kts
01-Aug-18 09:05 47.613924 -117.534917 24 2376ft 0kts
01-Aug-18 09:06 47.613927 -117.534915 24 2376ft 0kts
01-Aug-18 09:07 47.613929 -117.534913 24 2376ft 0kts
01-Aug-18 09:08 47.613932 -117.534912 24 2376ft 0kts
01-Aug-18 09:09 47.613935 -117.534910 24 2376ft 0kts
01-Aug-18 09:10 47.613937 -117.534908 24 2376ft 0kts
01-Aug-18 09:11 47.613940 -117.534906 24 2376ft 0kts
01-Aug-18 09:12 47.613942 -117.534905 24 2376ft 0kts
01-Aug-18 09:13 47.613945 -117.534903 24 2376ft 0kts
01-Aug-18 09:14 47.613948 -117.534900 24 2376ft 0kts
01-Aug-18 09:15 47.613951 -117.534898 24 2376ft 0kts
01-Aug-18 09:16 47.613954 -117.534896 24 2376ft 0kts
01-Aug-18 09:17 47.613957 -117.534894 24 2376ft 0kts
01-Aug-18 09:18 47.613960 -117.534892 24 2376ft 0kts
01-Aug-18 09:19 47.613972 -117.534884 24 2376ft 0kts
01-Aug-18 09:20 47.614736 -117.530298 89 2376ft 24kts
01-Aug-18 09:21 47.615603 -117.520547 357 2376ft 6kts
01-Aug-18 09:22 47.615618 -117.520548 357 2376ft 0kts
01-Aug-18 09:23 47.615671 -117.520552 357 2376ft 3kts
01-Aug-18 09:24 47.616754 -117.521595 268 2376ft 7kts
01-Aug-18 09:25 47.616381 -117.561496 250 3219ft 129kts
01-Aug-18 09:26 47.588840 -117.598195 216 4832ft 140kts
01-Aug-18 09:27 47.556864 -117.634707 216 6358ft 147kts
01-Aug-18 09:28 47.522446 -117.672756 216 7840ft 164kts
01-Aug-18 09:29 47.483397 -117.718405 219 9373ft 185kts
01-Aug-18 09:30 47.439429 -117.770412 219 10014ft 220kts
01-Aug-18 09:31 47.399908 -117.822763 235 10014ft 235kts
01-Aug-18 09:32 47.351746 -117.910629 215 10020ft 242kts
01-Aug-18 09:33 47.305868 -117.959053 218 10006ft 243kts
01-Aug-18 09:34 47.245338 -118.033954 221 10078ft 242kts
01-Aug-18 09:35 47.202793 -118.087554 221 10066ft 229kts
01-Aug-18 09:36 47.156717 -118.145256 221 10061ft 209kts
01-Aug-18 09:37 47.105431 -118.209590 221 10063ft 205kts
01-Aug-18 09:38 47.069178 -118.255111 221 10056ft 203kts
01-Aug-18 09:39 47.026372 -118.308904 221 10030ft 203kts
01-Aug-18 09:40 46.983944 -118.362474 220 10024ft 198kts
01-Aug-18 09:41 46.941597 -118.414360 222 10020ft 197kts
01-Aug-18 09:42 46.899661 -118.463534 215 10046ft 188kts
01-Aug-18 09:43 46.854934 -118.511535 216 10016ft 209kts
01-Aug-18 09:44 46.804938 -118.562249 215 9240ft 236kts
01-Aug-18 09:45 46.752227 -118.618396 215 7759ft 229kts
01-Aug-18 09:46 46.700743 -118.671547 215 6253ft 221kts
01-Aug-18 09:47 46.650562 -118.721509 208 4767ft 215kts
01-Aug-18 09:48 46.598295 -118.756710 204 4009ft 186kts
01-Aug-18 09:49 46.551341 -118.787074 204 3167ft 186kts
01-Aug-18 09:50 46.507169 -118.815385 204 3004ft 161kts
01-Aug-18 09:51 46.465912 -118.841676 204 2994ft 161kts
01-Aug-18 09:52 46.428798 -118.872185 218 3005ft 147kts
01-Aug-18 09:53 46.400378 -118.915534 232 2997ft 150kts
01-Aug-18 09:54 46.373479 -118.961175 226 2997ft 148kts
01-Aug-18 09:55 46.342809 -119.004633 225 2602ft 140kts
01-Aug-18 09:56 46.318516 -119.041446 225 1704ft 116kts
01-Aug-18 09:57 46.298045 -119.071643 223 1094ft 98kts
01-Aug-18 09:58 46.279483 -119.098934 221 673ft 93kts
01-Aug-18 09:59 46.265405 -119.119528 228 411ft 6kts
01-Aug-18 10:00 46.264480 -119.119264 136 411ft 0kts
01-Aug-18 10:01 46.262089 -119.115766 131 411ft 18kts
01-Aug-18 10:02 46.262121 -119.113139 68 411ft 20kts
01-Aug-18 10:03 46.264629 -119.106830 349 411ft 0kts
01-Aug-18 10:04 46.264633 -119.106831 349 411ft 0kts
01-Aug-18 10:05 46.264636 -119.106832 349 411ft 0kts

Navigation Log

Ident Type
Flight plan parsing failed, navigation log unavailable